KRVS/RVS METAR and TAF weather

Enter ICAO airport designator
Station Type Date Time Source
KRVS METAR 2020/09/18 15:53 UTC NOAA

KRVS 181553Z 03006KT 10SM CLR 22/15 A3024 RMK AO2 SLP244 T02220150


Station Type Date Time Source
KRVS Decoded METAR 2020/09/18 15:53 UTC NOAA

TULSA JONES JR. AIRPORT, OK, United States (KRVS) 36-03N 095-59W 200M
Sep 18, 2020 - 11:53 AM EDT / 2020.09.18 1553 UTC
Wind: from the NNE (030 degrees) at 7 MPH (6 KT):0
Visibility: 10 mile(s):0
Sky conditions: clear
Temperature: 72.0 F (22.2 C)
Dew Point: 59.0 F (15.0 C)
Relative Humidity: 63%
Pressure (altimeter): 30.24 in. Hg (1024 hPa)
ob: KRVS 181553Z 03006KT 10SM CLR 22/15 A3024 RMK AO2 SLP244 T02220150
cycle: 16

Station Type Date Time Source
KRVS TAF 2020/09/18 12:22 UTC NOAA

TAF KRVS 181120Z 1812/1912 00000KT P6SM SKC
FM181500 05007KT P6SM SKC
FM190100 VRB03KT P6SM SKC

Example: see airport list